Time;durP1;ratioP1;P1;durP2;ratioP2;P2;SDS_P1;SDS_P2;PMS_P1;PMS_P2;Temp;Humidity;BMP_temperature;BMP_pressure;BME280_temperature;BME280_humidity;BME280_pressure;Samples;Min_cycle;Max_cycle;Signal;HPM_P1;HPM_P2
2022/12/27 00:01:22;;;;;;;3.95;0.85;;;3.20;99.90;;;;;;6301323;22;20014;-82
2022/12/27 00:03:47;;;;;;;3.38;0.70;;;3.20;99.90;;;;;;6249974;22;20003;-82
2022/12/27 00:06:19;;;;;;;4.38;0.70;;;3.10;99.90;;;;;;6275535;22;20331;-81
2022/12/27 00:08:46;;;;;;;3.08;0.73;;;3.20;99.90;;;;;;6276416;22;20090;-82
2022/12/27 00:11:18;;;;;;;4.75;0.65;;;3.30;99.90;;;;;;6275743;22;20015;-82
2022/12/27 00:13:45;;;;;;;3.95;1.05;;;3.20;99.90;;;;;;6250081;22;20035;-82
2022/12/27 00:16:15;;;;;;;5.22;1.05;;;3.30;99.90;;;;;;6275935;22;20011;-82
2022/12/27 00:18:41;;;;;;;12.13;1.10;;;3.20;99.90;;;;;;6250154;22;20078;-82
2022/12/27 00:21:10;;;;;;;5.65;0.70;;;3.30;99.90;;;;;;6250008;22;20050;-81
2022/12/27 00:23:38;;;;;;;3.95;0.80;;;3.20;99.90;;;;;;6250353;22;20435;-82
2022/12/27 00:26:22;;;;;;;3.85;0.80;;;3.20;99.90;;;;;;6303579;22;20007;-82
2022/12/27 00:28:48;;;;;;;3.72;1.00;;;3.10;99.90;;;;;;6275430;22;20056;-81
2022/12/27 00:31:15;;;;;;;8.40;1.30;;;3.20;99.90;;;;;;6275734;22;20124;-82
2022/12/27 00:33:43;;;;;;;5.07;1.20;;;3.30;99.90;;;;;;6275729;22;20004;-82
2022/12/27 00:36:13;;;;;;;7.93;2.03;;;3.30;99.90;;;;;;6275478;22;20027;-82
2022/12/27 00:38:38;;;;;;;7.57;1.10;;;3.40;99.90;;;;;;6275820;22;20003;-82
2022/12/27 00:41:05;;;;;;;5.68;1.00;;;3.30;99.90;;;;;;6301901;22;20053;-82
2022/12/27 00:43:31;;;;;;;7.75;2.00;;;3.20;99.90;;;;;;6302936;22;19999;-81
2022/12/27 00:45:57;;;;;;;6.90;1.25;;;3.30;99.90;;;;;;6275431;22;20023;-82
2022/12/27 00:48:23;;;;;;;4.45;0.88;;;3.40;99.90;;;;;;6249681;22;20137;-82
2022/12/27 00:50:49;;;;;;;9.90;1.13;;;3.40;99.90;;;;;;6249612;22;20034;-83
2022/12/27 00:53:17;;;;;;;4.03;0.93;;;3.40;99.90;;;;;;6250044;22;20463;-82
2022/12/27 00:55:43;;;;;;;6.03;0.88;;;3.40;99.90;;;;;;6301545;22;20022;-82
2022/12/27 00:58:09;;;;;;;6.40;1.20;;;3.30;99.90;;;;;;6250437;22;20086;-81
2022/12/27 01:00:35;;;;;;;8.55;1.00;;;3.40;99.90;;;;;;6250827;22;20436;-82
2022/12/27 01:03:01;;;;;;;8.90;1.02;;;3.40;99.90;;;;;;6274961;22;20031;-82
2022/12/27 01:05:27;;;;;;;3.65;0.60;;;3.40;99.90;;;;;;6275961;22;20011;-81
2022/12/27 01:07:53;;;;;;;5.00;0.80;;;3.30;99.90;;;;;;6300988;22;20495;-82
2022/12/27 01:10:18;;;;;;;5.57;1.55;;;3.40;99.90;;;;;;6303105;22;20420;-81
2022/12/27 01:12:44;;;;;;;4.82;1.48;;;3.40;99.90;;;;;;6275461;22;20033;-81
2022/12/27 01:15:10;;;;;;;6.78;1.35;;;3.40;99.90;;;;;;6249649;22;20034;-82
2022/12/27 01:17:36;;;;;;;4.28;1.20;;;3.30;99.90;;;;;;6274924;22;20010;-81
2022/12/27 01:20:02;;;;;;;5.68;1.10;;;3.30;99.90;;;;;;6301203;22;20011;-82
2022/12/27 01:22:28;;;;;;;7.13;1.50;;;3.20;99.90;;;;;;6275479;22;20003;-83
2022/12/27 01:24:53;;;;;;;6.03;1.40;;;3.40;99.90;;;;;;6275181;22;20102;-81
2022/12/27 01:27:19;;;;;;;5.47;1.20;;;3.30;99.90;;;;;;6275394;22;20121;-82
2022/12/27 01:29:45;;;;;;;4.25;1.35;;;3.10;99.90;;;;;;6276033;22;20007;-81
2022/12/27 01:32:10;;;;;;;6.80;0.70;;;3.20;99.90;;;;;;6304066;22;20359;-82
2022/12/27 01:34:36;;;;;;;5.47;0.75;;;3.10;99.90;;;;;;6302976;22;20435;-80
2022/12/27 01:37:02;;;;;;;3.22;0.52;;;3.00;99.90;;;;;;6302464;22;20015;-81
2022/12/27 01:39:27;;;;;;;3.50;0.50;;;3.00;99.90;;;;;;6277387;22;20098;-81
2022/12/27 01:44:47;;;;;;;3.67;0.77;;;3.00;99.90;;;;;;6277337;22;20070;-81
2022/12/27 01:47:16;;;;;;;4.80;0.80;;;2.90;99.90;;;;;;6250906;22;20359;-81
2022/12/27 01:49:48;;;;;;;3.75;1.05;;;3.00;99.90;;;;;;6251486;22;20052;-81
2022/12/27 01:52:14;;;;;;;5.30;1.02;;;3.00;99.90;;;;;;6277456;22;20125;-81
2022/12/27 01:54:41;;;;;;;7.70;1.00;;;3.00;99.90;;;;;;6251035;22;20046;-81
2022/12/27 01:57:07;;;;;;;3.83;0.80;;;3.00;99.90;;;;;;6302829;22;19995;-81
2022/12/27 01:59:33;;;;;;;3.45;0.90;;;3.00;99.90;;;;;;6277144;22;20082;-81
2022/12/27 02:01:59;;;;;;;6.07;1.33;;;2.90;99.90;;;;;;6250565;22;20022;-82
2022/12/27 02:04:29;;;;;;;3.60;0.80;;;3.00;99.90;;;;;;6303011;22;20448;-81
2022/12/27 02:06:55;;;;;;;5.83;0.93;;;3.00;99.90;;;;;;6277084;22;20003;-81
2022/12/27 02:09:39;;;;;;;4.05;0.70;;;3.00;99.90;;;;;;6251752;22;20249;-81
2022/12/27 02:12:07;;;;;;;6.03;1.40;;;2.90;99.90;;;;;;6251641;22;20428;-81
2022/12/27 02:14:42;;;;;;;3.55;1.20;;;3.00;99.90;;;;;;6276948;22;20106;-81
2022/12/27 02:17:30;;;;;;;3.47;0.90;;;3.00;99.90;;;;;;6275962;22;20030;-82
2022/12/27 02:20:16;;;;;;;7.28;0.80;;;3.00;99.90;;;;;;6250899;22;20379;-81
2022/12/27 02:25:49;;;;;;;5.43;1.20;;;3.00;99.90;;;;;;6304070;22;20012;-82
2022/12/27 02:28:44;;;;;;;9.02;1.52;;;3.20;99.90;;;;;;6251882;22;20014;-81
2022/12/27 02:31:17;;;;;;;7.07;1.60;;;3.30;99.90;;;;;;6229498;22;20386;-81
2022/12/27 02:33:47;;;;;;;6.88;1.00;;;3.40;99.90;;;;;;6276303;22;20375;-81
2022/12/27 02:36:21;;;;;;;8.32;2.00;;;3.40;99.90;;;;;;6251744;22;20100;-80
2022/12/27 02:38:50;;;;;;;11.27;2.30;;;3.60;99.90;;;;;;6304150;22;20007;-83
2022/12/27 02:53:07;;;;;;;11.40;2.13;;;3.70;99.90;;;;;;6303932;22;20576;-81
2022/12/27 02:59:19;;;;;;;3.15;1.02;;;3.60;99.90;;;;;;6303021;22;20010;-80
2022/12/27 03:05:41;;;;;;;2.70;0.68;;;3.30;99.90;;;;;;6303823;22;20458;-80
2022/12/27 03:08:11;;;;;;;4.10;0.80;;;3.20;99.90;;;;;;6250557;22;19999;-80
2022/12/27 03:16:58;;;;;;;1.97;0.40;;;2.90;99.90;;;;;;6275600;22;20014;-81
2022/12/27 03:25:27;;;;;;;2.25;0.50;;;3.00;99.90;;;;;;6275071;22;20374;-81
2022/12/27 03:33:37;;;;;;;4.37;1.00;;;2.90;99.90;;;;;;6303005;22;20003;-81
2022/12/27 03:39:15;;;;;;;2.60;0.73;;;2.90;99.90;;;;;;6302605;22;20027;-81
2022/12/27 03:44:37;;;;;;;5.55;0.70;;;3.10;99.90;;;;;;6275411;22;20470;-81
2022/12/27 03:47:16;;;;;;;4.03;0.80;;;3.10;99.90;;;;;;6250280;22;20033;-81
2022/12/27 03:50:01;;;;;;;3.33;0.80;;;3.20;99.90;;;;;;6275256;22;20015;-81
2022/12/27 03:52:33;;;;;;;3.63;0.82;;;3.20;99.90;;;;;;6303017;22;20076;-81
2022/12/27 03:55:00;;;;;;;4.40;1.00;;;3.10;99.90;;;;;;6275539;22;20015;-81
2022/12/27 03:57:27;;;;;;;4.18;1.10;;;3.30;99.90;;;;;;6275518;22;20489;-80
2022/12/27 03:59:53;;;;;;;4.45;1.05;;;3.20;99.90;;;;;;6249812;22;20170;-81
2022/12/27 04:02:19;;;;;;;7.40;1.40;;;3.10;99.90;;;;;;6250154;22;20098;-81
2022/12/27 04:04:45;;;;;;;6.05;1.52;;;3.30;99.90;;;;;;6302892;22;20054;-81
2022/12/27 04:07:15;;;;;;;2.55;0.80;;;3.20;99.90;;;;;;6301653;22;20070;-81
2022/12/27 04:37:06;;;;;;;6.80;1.50;;;3.00;99.90;;;;;;6303065;22;20006;-81
2022/12/27 04:39:32;;;;;;;7.10;1.20;;;2.90;99.90;;;;;;6275595;22;20011;-81
2022/12/27 04:56:18;;;;;;;9.75;1.15;;;2.80;99.90;;;;;;6268236;22;20309;-81
2022/12/27 05:04:14;;;;;;;9.32;2.00;;;3.00;99.90;;;;;;6269609;22;20518;-81
2022/12/27 05:06:40;;;;;;;5.38;1.42;;;3.00;99.90;;;;;;6270467;22;20008;-81
2022/12/27 05:14:53;;;;;;;7.00;1.42;;;2.90;99.90;;;;;;6153948;23;20012;-81
2022/12/27 05:17:19;;;;;;;10.40;2.22;;;3.00;99.90;;;;;;6180021;23;20032;-80
2022/12/27 05:19:44;;;;;;;6.55;1.70;;;3.00;99.90;;;;;;6154573;23;20083;-81
2022/12/27 05:27:38;;;;;;;6.95;1.00;;;3.10;99.90;;;;;;6179420;23;20020;-81
2022/12/27 05:30:04;;;;;;;7.60;1.58;;;3.10;99.90;;;;;;6179946;23;20005;-81
2022/12/27 05:32:30;;;;;;;7.55;1.77;;;3.30;99.90;;;;;;6201666;23;20016;-82
2022/12/27 05:34:56;;;;;;;5.72;1.20;;;3.30;99.90;;;;;;6184009;23;20493;-81
2022/12/27 05:37:21;;;;;;;8.85;1.42;;;3.20;99.90;;;;;;6184902;23;20017;-81
2022/12/27 05:39:47;;;;;;;7.57;1.27;;;3.20;99.90;;;;;;6208854;23;20019;-82
2022/12/27 05:42:12;;;;;;;6.88;2.00;;;3.30;99.90;;;;;;6184486;23;20084;-81
2022/12/27 05:44:38;;;;;;;7.00;1.75;;;3.30;99.90;;;;;;6159696;23;20016;-82
2022/12/27 05:47:04;;;;;;;9.98;1.27;;;3.20;99.90;;;;;;6294507;22;20042;-81
2022/12/27 05:49:29;;;;;;;10.93;1.63;;;3.10;99.90;;;;;;6276773;22;20034;-81
2022/12/27 05:51:55;;;;;;;8.05;1.58;;;3.10;99.90;;;;;;6304058;22;20409;-81
2022/12/27 05:54:21;;;;;;;7.28;1.08;;;3.20;99.90;;;;;;6302402;22;20691;-81
2022/12/27 05:56:46;;;;;;;7.05;1.35;;;3.30;99.90;;;;;;6250577;22;20010;-81
2022/12/27 05:59:12;;;;;;;8.07;1.23;;;3.20;99.90;;;;;;6277363;22;20007;-81
2022/12/27 06:01:38;;;;;;;5.35;1.15;;;3.30;99.90;;;;;;6277355;22;20007;-81
2022/12/27 06:04:04;;;;;;;6.22;1.38;;;3.30;99.90;;;;;;6302851;22;20007;-81
2022/12/27 06:06:29;;;;;;;6.28;1.27;;;3.40;99.90;;;;;;6304204;22;20013;-81
2022/12/27 06:08:55;;;;;;;5.97;1.30;;;3.40;99.90;;;;;;6276313;22;20027;-81
2022/12/27 06:11:21;;;;;;;6.53;1.08;;;3.30;99.90;;;;;;6304049;22;20626;-81
2022/12/27 06:13:52;;;;;;;3.83;1.00;;;3.30;99.90;;;;;;6302587;22;20003;-81
2022/12/27 06:16:19;;;;;;;5.22;0.77;;;3.30;99.90;;;;;;6276398;22;20050;-81
2022/12/27 06:18:45;;;;;;;7.05;0.80;;;3.30;99.90;;;;;;6276732;22;19999;-82
2022/12/27 06:21:14;;;;;;;6.40;0.80;;;3.30;99.90;;;;;;6276531;22;20010;-81
2022/12/27 06:23:43;;;;;;;5.68;0.70;;;3.30;99.90;;;;;;6250705;22;20007;-81
2022/12/27 06:26:22;;;;;;;5.90;0.87;;;3.20;99.90;;;;;;6276848;22;20041;-81
2022/12/27 06:28:49;;;;;;;5.30;0.70;;;3.30;99.90;;;;;;6276463;22;20328;-81
2022/12/27 06:31:16;;;;;;;8.75;1.65;;;3.40;99.90;;;;;;6250563;22;20366;-81
2022/12/27 06:33:41;;;;;;;9.35;1.00;;;3.40;99.90;;;;;;6250678;22;20011;-82
2022/12/27 06:36:10;;;;;;;5.82;1.42;;;3.30;99.90;;;;;;6302655;22;20038;-81
2022/12/27 06:38:36;;;;;;;7.38;1.00;;;3.30;99.90;;;;;;6303588;22;20067;-81
2022/12/27 06:41:10;;;;;;;6.90;0.70;;;3.30;99.90;;;;;;6301784;22;20395;-81
2022/12/27 06:43:36;;;;;;;4.85;0.98;;;3.20;99.90;;;;;;6273827;22;20014;-81
2022/12/27 06:46:04;;;;;;;3.33;0.52;;;3.30;99.90;;;;;;6275355;22;20076;-81
2022/12/27 06:48:31;;;;;;;6.45;0.70;;;3.10;99.90;;;;;;6251387;22;20009;-81
2022/12/27 06:50:56;;;;;;;3.80;0.70;;;3.10;99.90;;;;;;6249976;22;20039;-81
2022/12/27 06:53:23;;;;;;;3.88;0.60;;;3.00;99.90;;;;;;6303671;22;20302;-81
2022/12/27 06:55:48;;;;;;;3.75;0.50;;;3.00;99.90;;;;;;6224848;22;20394;-82
2022/12/27 06:58:15;;;;;;;4.63;0.57;;;2.80;99.90;;;;;;6275622;22;20007;-81
2022/12/27 07:00:42;;;;;;;5.97;0.88;;;3.00;99.90;;;;;;6250326;22;20443;-81
2022/12/27 07:03:08;;;;;;;5.82;0.90;;;2.90;99.90;;;;;;6301766;22;20018;-81
2022/12/27 07:05:34;;;;;;;4.65;0.57;;;2.80;99.90;;;;;;6275438;22;20375;-80
2022/12/27 07:08:00;;;;;;;3.20;0.70;;;2.70;99.90;;;;;;6250109;22;20335;-81
2022/12/27 07:10:25;;;;;;;3.08;0.60;;;3.00;99.90;;;;;;6276588;22;20044;-81
2022/12/27 07:12:51;;;;;;;3.45;0.60;;;2.80;99.90;;;;;;6275366;22;19999;-81
2022/12/27 07:15:17;;;;;;;2.70;0.50;;;2.90;99.90;;;;;;6275843;22;20007;-81
2022/12/27 07:17:42;;;;;;;3.92;0.68;;;2.90;99.90;;;;;;6275329;22;20003;-81
2022/12/27 07:20:08;;;;;;;2.95;0.73;;;2.80;99.90;;;;;;6275183;22;20463;-81
2022/12/27 07:22:34;;;;;;;3.70;0.60;;;2.80;99.90;;;;;;6303312;22;20019;-81
2022/12/27 07:25:00;;;;;;;3.22;0.60;;;2.70;99.90;;;;;;6301410;22;20011;-81
2022/12/27 07:27:25;;;;;;;4.07;0.60;;;2.70;99.90;;;;;;6275522;22;20440;-81
2022/12/27 07:29:51;;;;;;;3.30;0.55;;;2.80;99.90;;;;;;6275689;22;20463;-81
2022/12/27 07:32:17;;;;;;;2.28;0.40;;;2.70;99.90;;;;;;6275641;22;20011;-81
2022/12/27 07:34:43;;;;;;;1.40;0.40;;;2.60;99.90;;;;;;6248734;22;20003;-81
2022/12/27 07:37:08;;;;;;;4.45;0.50;;;2.70;99.90;;;;;;6301457;22;20035;-81
2022/12/27 07:39:34;;;;;;;2.15;0.43;;;2.60;99.90;;;;;;6275545;22;20011;-80
2022/12/27 07:42:00;;;;;;;4.55;0.45;;;2.70;99.90;;;;;;6303008;22;20003;-81
2022/12/27 07:44:25;;;;;;;2.92;0.50;;;2.60;99.90;;;;;;6275428;22;20019;-80
2022/12/27 07:46:51;;;;;;;2.25;0.40;;;2.70;99.90;;;;;;6302936;22;20104;-80
2022/12/27 07:49:17;;;;;;;2.85;0.40;;;2.60;99.90;;;;;;6274688;22;19999;-81
2022/12/27 07:51:42;;;;;;;3.92;0.40;;;2.50;99.90;;;;;;6275067;22;20008;-81
2022/12/27 07:54:08;;;;;;;2.90;0.57;;;2.50;99.90;;;;;;6300190;22;20003;-81
2022/12/27 07:56:34;;;;;;;3.05;0.50;;;2.60;99.90;;;;;;6301084;22;20094;-81
2022/12/27 07:59:01;;;;;;;1.73;0.30;;;2.50;99.90;;;;;;6301335;22;20003;-81
2022/12/27 08:01:28;;;;;;;2.08;0.40;;;2.50;99.90;;;;;;6275013;22;20007;-81
2022/12/27 08:03:54;;;;;;;1.73;0.40;;;2.40;99.90;;;;;;6301440;22;20011;-81
2022/12/27 08:06:29;;;;;;;2.53;0.40;;;2.50;99.90;;;;;;6274625;22;20057;-81
2022/12/27 08:08:56;;;;;;;2.85;0.52;;;2.40;99.90;;;;;;6248696;22;20073;-81
2022/12/27 08:11:22;;;;;;;2.58;0.47;;;2.50;99.90;;;;;;6249234;22;20125;-81
2022/12/27 08:13:48;;;;;;;3.55;0.75;;;2.40;99.90;;;;;;6273950;22;20046;-80
2022/12/27 08:16:20;;;;;;;2.28;0.40;;;2.40;99.90;;;;;;6249174;22;20038;-80
2022/12/27 08:18:46;;;;;;;4.90;0.70;;;2.40;99.90;;;;;;6248346;22;20022;-80
2022/12/27 08:21:12;;;;;;;4.47;0.65;;;2.40;99.90;;;;;;6275202;22;20019;-80
2022/12/27 08:23:38;;;;;;;2.67;0.50;;;2.50;99.90;;;;;;6274388;22;20056;-80
2022/12/27 08:26:05;;;;;;;3.25;0.60;;;2.40;99.90;;;;;;6302584;22;20026;-80
2022/12/27 08:28:30;;;;;;;2.72;0.65;;;2.50;99.90;;;;;;6274460;22;20031;-80
2022/12/27 08:30:58;;;;;;;3.30;0.80;;;2.50;99.90;;;;;;6300177;22;20019;-80
2022/12/27 08:33:23;;;;;;;4.70;0.80;;;2.60;99.90;;;;;;6248597;22;20014;-80
2022/12/27 08:35:49;;;;;;;6.25;0.93;;;2.60;99.90;;;;;;6299407;22;20007;-80
2022/12/27 08:38:15;;;;;;;3.78;0.90;;;2.60;99.90;;;;;;6300261;22;19995;-80
2022/12/27 08:40:43;;;;;;;4.47;1.50;;;2.50;99.90;;;;;;6273709;22;20068;-81
2022/12/27 08:43:10;;;;;;;6.43;2.22;;;2.60;99.90;;;;;;6274863;22;20078;-81
2022/12/27 08:45:37;;;;;;;6.68;2.28;;;2.70;99.90;;;;;;6274415;22;20015;-81
2022/12/27 08:48:03;;;;;;;7.97;3.25;;;2.80;99.90;;;;;;6274076;22;20432;-81
2022/12/27 08:50:30;;;;;;;8.23;4.43;;;2.90;99.90;;;;;;6275233;22;20033;-81
2022/12/27 08:52:57;;;;;;;10.85;4.78;;;3.10;99.90;;;;;;6301983;22;19999;-81
2022/12/27 08:55:25;;;;;;;6.88;4.32;;;3.10;99.90;;;;;;6274831;22;20011;-80
2022/12/27 08:57:58;;;;;;;6.75;3.70;;;3.00;99.90;;;;;;6248970;22;20007;-80
2022/12/27 09:00:26;;;;;;;8.10;5.10;;;3.10;99.90;;;;;;6274708;22;20102;-81
2022/12/27 09:02:52;;;;;;;8.38;3.60;;;3.20;99.90;;;;;;6273979;22;20035;-81
2022/12/27 09:05:18;;;;;;;5.63;3.35;;;3.10;99.90;;;;;;6302068;22;20007;-81
2022/12/27 09:07:45;;;;;;;7.88;3.55;;;3.10;99.90;;;;;;6273570;22;20007;-81
2022/12/27 09:10:11;;;;;;;6.13;3.42;;;3.10;99.90;;;;;;6302236;22;20007;-81
2022/12/27 09:12:36;;;;;;;6.13;3.08;;;3.30;99.90;;;;;;6274327;22;20459;-81
2022/12/27 09:15:02;;;;;;;6.05;3.42;;;3.30;99.90;;;;;;6274309;22;20011;-81
2022/12/27 09:17:29;;;;;;;7.95;4.38;;;3.30;99.90;;;;;;6249035;22;20064;-81
2022/12/27 09:19:55;;;;;;;6.90;3.65;;;3.40;99.90;;;;;;6300270;22;20003;-81
2022/12/27 09:22:21;;;;;;;4.22;3.03;;;3.40;99.90;;;;;;6301778;22;20003;-81
2022/12/27 09:24:46;;;;;;;7.93;3.47;;;3.40;99.90;;;;;;6273987;22;20336;-81
2022/12/27 09:27:12;;;;;;;8.00;3.42;;;3.40;99.90;;;;;;6274636;22;20343;-81
2022/12/27 09:29:38;;;;;;;7.07;3.25;;;3.60;99.90;;;;;;6300463;22;20011;-81
2022/12/27 09:32:04;;;;;;;8.27;3.78;;;3.50;99.90;;;;;;6300150;22;20248;-80
2022/12/27 09:34:29;;;;;;;7.75;3.45;;;3.70;99.90;;;;;;6300331;22;20007;-81
2022/12/27 09:36:55;;;;;;;9.48;3.65;;;3.80;99.90;;;;;;6274679;22;20007;-81
2022/12/27 09:39:21;;;;;;;9.40;3.97;;;3.90;99.90;;;;;;6274616;22;20006;-81
2022/12/27 09:42:16;;;;;;;5.43;3.40;;;4.00;99.90;;;;;;6273397;22;20007;-81
2022/12/27 09:44:51;;;;;;;12.25;5.18;;;3.90;99.90;;;;;;6177035;23;20386;-81
2022/12/27 09:47:39;;;;;;;14.65;5.60;;;4.10;99.90;;;;;;6152537;23;20009;-81
2022/12/27 09:50:26;;;;;;;6.65;4.35;;;4.10;99.90;;;;;;6127790;23;20163;-81
2022/12/27 09:52:55;;;;;;;9.43;4.82;;;4.00;99.90;;;;;;6129316;23;20449;-81
2022/12/27 09:55:30;;;;;;;7.50;4.17;;;4.10;99.90;;;;;;6178573;23;20017;-81
2022/12/27 09:58:32;;;;;;;10.18;4.80;;;4.10;99.90;;;;;;6178491;23;20009;-81
2022/12/27 10:00:58;;;;;;;6.90;2.70;;;4.20;99.90;;;;;;6171405;23;20326;-81
2022/12/27 10:03:26;;;;;;;6.10;3.40;;;4.30;99.90;;;;;;6153946;23;20013;-81
2022/12/27 10:06:06;;;;;;;8.02;4.05;;;4.40;99.90;;;;;;6128705;23;20056;-81
2022/12/27 10:08:59;;;;;;;7.75;4.50;;;4.40;99.90;;;;;;6153433;23;20012;-81
2022/12/27 10:11:47;;;;;;;7.68;4.15;;;4.40;99.90;;;;;;6153833;23;20016;-81
2022/12/27 10:14:34;;;;;;;6.72;3.35;;;4.40;99.90;;;;;;6177780;23;20011;-81
2022/12/27 10:17:45;;;;;;;8.95;4.00;;;4.50;99.90;;;;;;6128583;23;20009;-81
2022/12/27 10:20:19;;;;;;;9.55;3.78;;;4.60;99.90;;;;;;6163838;23;20037;-81
2022/12/27 10:23:06;;;;;;;6.82;3.45;;;4.60;99.90;;;;;;6241141;22;20472;-81
2022/12/27 10:25:33;;;;;;;8.18;3.83;;;4.60;99.90;;;;;;6249336;22;20027;-81
2022/12/27 10:28:24;;;;;;;5.93;3.78;;;4.70;99.90;;;;;;6275825;22;20023;-81
2022/12/27 10:30:51;;;;;;;8.10;4.40;;;4.90;99.90;;;;;;6275866;22;20011;-81
2022/12/27 10:33:26;;;;;;;7.70;4.50;;;4.90;99.90;;;;;;6275933;22;19999;-81
2022/12/27 10:35:53;;;;;;;7.28;4.05;;;4.90;99.90;;;;;;6266637;22;20011;-81
2022/12/27 10:38:19;;;;;;;6.63;3.42;;;5.00;99.90;;;;;;6250640;22;20081;-81
2022/12/27 10:41:13;;;;;;;7.25;3.67;;;5.00;99.90;;;;;;6250113;22;20019;-81
2022/12/27 10:43:41;;;;;;;7.18;4.00;;;5.10;99.90;;;;;;6247153;22;20015;-82
2022/12/27 10:46:18;;;;;;;9.77;3.83;;;5.10;99.90;;;;;;6275877;22;20019;-82
2022/12/27 10:49:02;;;;;;;11.43;3.90;;;5.10;99.90;;;;;;6274444;22;20432;-81
2022/12/27 10:51:38;;;;;;;7.40;3.75;;;5.30;99.90;;;;;;6248624;22;20018;-82
2022/12/27 10:54:12;;;;;;;10.07;4.45;;;5.40;99.90;;;;;;6274019;22;20029;-81
2022/12/27 10:56:43;;;;;;;5.80;3.08;;;5.60;99.90;;;;;;6248545;22;20011;-81
2022/12/27 10:59:15;;;;;;;8.73;4.60;;;5.60;99.90;;;;;;6248063;22;20003;-81
2022/12/27 11:01:45;;;;;;;6.72;4.72;;;5.60;99.90;;;;;;6273751;22;20015;-82
2022/12/27 11:04:20;;;;;;;8.00;4.17;;;5.50;99.90;;;;;;6274074;22;20003;-82
2022/12/27 11:07:09;;;;;;;8.60;3.70;;;5.60;99.90;;;;;;6248291;22;20257;-82
2022/12/27 11:09:37;;;;;;;7.93;3.78;;;5.60;99.90;;;;;;6274063;22;20009;-82
2022/12/27 11:12:24;;;;;;;8.30;2.85;;;5.70;99.90;;;;;;6247534;22;20375;-81
2022/12/27 11:14:55;;;;;;;7.10;3.20;;;5.80;99.90;;;;;;6273710;22;20011;-81
2022/12/27 11:17:40;;;;;;;5.93;3.03;;;5.80;99.90;;;;;;6273572;22;20327;-81
2022/12/27 11:20:24;;;;;;;4.40;2.78;;;5.90;99.90;;;;;;6274071;22;20069;-81
2022/12/27 11:23:09;;;;;;;5.65;2.55;;;5.90;99.90;;;;;;6247942;22;20015;-81
2022/12/27 11:25:53;;;;;;;11.68;3.92;;;5.90;99.90;;;;;;6248320;22;20046;-82
2022/12/27 11:28:32;;;;;;;8.35;3.65;;;6.00;99.90;;;;;;6273284;22;19999;-82
2022/12/27 11:31:10;;;;;;;8.20;3.50;;;6.00;99.90;;;;;;6248360;22;20018;-82
2022/12/27 11:33:38;;;;;;;8.00;3.42;;;6.10;99.90;;;;;;6272939;22;20037;-82
2022/12/27 11:36:05;;;;;;;5.95;2.42;;;6.10;99.90;;;;;;6301173;22;20078;-82
2022/12/27 11:38:33;;;;;;;11.73;2.42;;;6.10;99.90;;;;;;6301325;22;20011;-82
2022/12/27 11:41:10;;;;;;;8.43;2.78;;;6.00;99.90;;;;;;6272939;22;20007;-82
2022/12/27 11:43:46;;;;;;;4.80;1.30;;;6.10;99.90;;;;;;6247924;22;20007;-82
2022/12/27 11:46:36;;;;;;;6.47;1.77;;;6.20;99.90;;;;;;6291956;22;20015;-82
2022/12/27 11:49:05;;;;;;;8.27;1.95;;;6.10;99.90;;;;;;6273321;22;20556;-82
2022/12/27 11:51:57;;;;;;;3.92;1.10;;;6.20;99.90;;;;;;6248600;22;20007;-82
2022/12/27 11:54:52;;;;;;;3.20;1.13;;;6.30;99.90;;;;;;6273480;22;20007;-83
2022/12/27 11:57:51;;;;;;;4.30;1.15;;;6.40;99.90;;;;;;6300450;22;20438;-82
2022/12/27 12:00:26;;;;;;;8.85;1.98;;;6.40;99.90;;;;;;6248274;22;20499;-82
2022/12/27 12:02:58;;;;;;;6.43;1.70;;;6.50;99.90;;;;;;6273352;22;20000;-83
2022/12/27 12:05:45;;;;;;;6.05;1.67;;;6.60;99.90;;;;;;6273657;22;20015;-83
2022/12/27 12:08:20;;;;;;;8.57;1.08;;;6.70;99.90;;;;;;6274206;22;20003;-82
2022/12/27 12:10:53;;;;;;;5.13;0.90;;;6.80;99.90;;;;;;6272739;22;20011;-83
2022/12/27 12:13:40;;;;;;;4.72;0.70;;;6.80;99.90;;;;;;6273173;22;20426;-83
2022/12/27 12:16:52;;;;;;;3.72;0.85;;;6.80;99.90;;;;;;6273540;22;20003;-84
2022/12/27 12:19:31;;;;;;;4.88;0.90;;;6.90;99.90;;;;;;6151174;23;20017;-83
2022/12/27 12:22:31;;;;;;;3.70;0.50;;;6.90;99.90;;;;;;6176105;23;20051;-83
2022/12/27 12:25:21;;;;;;;5.93;0.77;;;6.90;99.90;;;;;;6125934;23;20017;-83
2022/12/27 12:28:03;;;;;;;5.88;0.60;;;6.80;99.90;;;;;;6151672;23;20013;-83
2022/12/27 12:30:55;;;;;;;4.20;0.63;;;6.70;99.90;;;;;;6151409;23;20485;-84
2022/12/27 12:33:49;;;;;;;5.07;0.60;;;6.80;99.90;;;;;;6176682;23;20374;-83
2022/12/27 12:36:49;;;;;;;4.20;0.55;;;6.90;99.90;;;;;;6151195;23;20466;-84
2022/12/27 12:39:27;;;;;;;2.47;0.63;;;6.90;99.90;;;;;;6126254;23;20091;-83
2022/12/27 12:41:59;;;;;;;4.60;0.82;;;7.00;99.90;;;;;;6176146;23;20478;-82
2022/12/27 12:44:44;;;;;;;3.65;0.57;;;7.20;99.90;;;;;;6175705;23;20358;-84
2022/12/27 12:47:47;;;;;;;4.68;0.70;;;7.30;99.90;;;;;;6176649;23;20449;-83
2022/12/27 12:50:30;;;;;;;7.93;0.65;;;7.30;99.90;;;;;;6126591;23;20020;-84
2022/12/27 12:53:18;;;;;;;4.63;0.68;;;7.30;99.90;;;;;;6212342;22;20431;-84
2022/12/27 12:56:20;;;;;;;3.47;0.90;;;7.30;99.90;;;;;;6300573;22;20011;-83
2022/12/27 12:59:01;;;;;;;3.90;0.57;;;7.30;99.90;;;;;;6273014;22;20077;-84
2022/12/27 13:01:44;;;;;;;4.07;0.88;;;7.30;99.90;;;;;;6301179;22;20027;-83
2022/12/27 13:04:28;;;;;;;4.20;0.60;;;7.20;99.90;;;;;;6247121;22;20362;-83
2022/12/27 13:07:16;;;;;;;4.20;0.80;;;7.30;99.90;;;;;;6247239;22;20049;-83
2022/12/27 13:10:14;;;;;;;4.20;0.63;;;7.20;99.90;;;;;;6272492;22;20412;-83
2022/12/27 13:12:45;;;;;;;4.32;0.60;;;7.00;99.90;;;;;;6125771;23;20107;-83
2022/12/27 13:15:23;;;;;;;3.22;0.60;;;6.90;99.90;;;;;;6175111;23;20024;-83
2022/12/27 13:18:01;;;;;;;4.35;0.80;;;6.90;99.90;;;;;;6149991;23;20016;-83
2022/12/27 13:20:45;;;;;;;4.97;0.63;;;6.80;99.90;;;;;;6126226;23;20009;-83
2022/12/27 13:23:44;;;;;;;4.40;0.63;;;6.70;99.90;;;;;;6175314;23;20017;-83
2022/12/27 13:26:23;;;;;;;5.50;0.70;;;6.70;99.90;;;;;;6127947;23;20477;-82
2022/12/27 13:29:28;;;;;;;5.10;0.73;;;6.60;99.90;;;;;;6127629;23;20013;-83
2022/12/27 13:32:27;;;;;;;3.30;0.70;;;6.60;99.90;;;;;;6100363;23;20009;-82
2022/12/27 13:35:02;;;;;;;4.63;0.90;;;6.70;99.90;;;;;;6139661;23;20009;-81
2022/12/27 13:37:54;;;;;;;5.38;0.82;;;6.60;99.90;;;;;;6166410;23;20064;-81
2022/12/27 13:40:29;;;;;;;3.75;0.80;;;6.60;99.90;;;;;;6117139;23;20017;-82
2022/12/27 13:43:28;;;;;;;3.45;0.70;;;6.60;99.90;;;;;;6165070;23;20015;-81
2022/12/27 13:46:18;;;;;;;3.13;0.75;;;6.70;99.90;;;;;;6160993;23;20020;-82
2022/12/27 13:49:25;;;;;;;3.75;0.70;;;6.80;99.90;;;;;;6221406;22;20108;-82
2022/12/27 13:51:52;;;;;;;3.58;0.80;;;6.80;99.90;;;;;;6116097;23;20013;-81
2022/12/27 13:54:40;;;;;;;3.33;1.02;;;7.00;99.90;;;;;;6166076;23;20132;-82
2022/12/27 13:57:27;;;;;;;4.63;0.85;;;7.00;99.90;;;;;;6165769;23;20017;-81
2022/12/27 14:00:14;;;;;;;3.15;0.70;;;7.00;99.90;;;;;;6117032;23;20013;-81
2022/12/27 14:03:06;;;;;;;4.97;0.82;;;7.00;99.90;;;;;;6168537;23;20012;-81
2022/12/27 14:06:04;;;;;;;4.63;1.05;;;7.00;99.90;;;;;;6115182;23;20128;-81
2022/12/27 14:08:51;;;;;;;7.70;1.13;;;7.00;99.90;;;;;;6140209;23;20036;-81
2022/12/27 14:11:47;;;;;;;5.05;1.15;;;7.00;99.90;;;;;;6116355;23;20016;-81
2022/12/27 14:14:16;;;;;;;2.50;0.60;;;6.90;99.90;;;;;;6140562;23;20028;-81
2022/12/27 14:17:23;;;;;;;3.50;0.70;;;6.80;99.90;;;;;;6116288;23;20580;-82
2022/12/27 14:20:09;;;;;;;2.38;0.50;;;6.70;99.90;;;;;;6112168;23;20405;-81
2022/12/27 14:22:55;;;;;;;2.53;0.52;;;6.80;99.90;;;;;;6115464;23;20418;-80
2022/12/27 14:25:42;;;;;;;2.95;0.70;;;6.70;99.90;;;;;;6140667;23;20053;-81
2022/12/27 14:28:45;;;;;;;5.07;0.77;;;6.70;99.90;;;;;;6207111;22;20743;-81
2022/12/27 14:31:16;;;;;;;2.33;0.63;;;6.70;99.90;;;;;;6230061;22;20123;-81
2022/12/27 14:34:04;;;;;;;2.97;0.80;;;6.70;99.90;;;;;;6231330;22;20801;-82
2022/12/27 14:36:59;;;;;;;4.05;0.70;;;6.70;99.90;;;;;;6261748;22;20007;-81
2022/12/27 14:39:45;;;;;;;5.63;0.80;;;6.70;99.90;;;;;;6241477;22;20045;-82
2022/12/27 14:42:49;;;;;;;3.72;0.93;;;6.60;99.90;;;;;;6237139;22;20015;-80
2022/12/27 14:45:39;;;;;;;3.40;0.88;;;6.50;99.90;;;;;;6237218;22;20023;-83
2022/12/27 14:48:33;;;;;;;2.40;0.57;;;6.50;99.90;;;;;;6262324;22;20011;-82
2022/12/27 14:51:20;;;;;;;4.05;1.08;;;6.50;99.90;;;;;;6237148;22;20101;-82
2022/12/27 14:54:19;;;;;;;3.33;0.93;;;6.50;99.90;;;;;;6237244;22;20069;-82
2022/12/27 14:57:14;;;;;;;2.78;0.80;;;6.40;99.90;;;;;;6262363;22;20019;-81
2022/12/27 15:00:14;;;;;;;6.18;0.70;;;6.40;99.90;;;;;;6262029;22;20542;-81
2022/12/27 15:03:23;;;;;;;4.32;0.60;;;6.40;99.90;;;;;;6226996;22;20026;-81
2022/12/27 15:10:32;;;;;;;9.10;1.05;;;6.40;99.90;;;;;;6236946;22;20072;-80
2022/12/27 15:13:20;;;;;;;1.98;0.50;;;6.40;99.90;;;;;;6257904;22;20003;-81
2022/12/27 15:16:47;;;;;;;1.80;0.60;;;6.30;99.90;;;;;;6261266;22;20031;-81
2022/12/27 15:20:18;;;;;;;2.13;0.40;;;6.30;99.90;;;;;;6224851;22;20014;-81
2022/12/27 15:23:17;;;;;;;1.80;0.45;;;6.20;99.90;;;;;;6159344;23;20013;-82
2022/12/27 15:26:25;;;;;;;3.40;0.95;;;6.30;99.90;;;;;;6133218;23;20017;-81
2022/12/27 15:29:52;;;;;;;4.40;0.55;;;6.20;99.90;;;;;;6111212;23;20092;-80